Terminal Aerodrome Forecast
Issued by NWS

Home | Current Version | Previous Version | Text Only | Print | Product List | Glossary On
Versions: 1 2 3 4 5 6 7 8 9 10 11 12 13 14 15 16 17
511
FTAK31 PAJN 212320
TAFASI
TAF
PASI 212320Z 2200/2224 VRB06KT 5SM -RA BR FEW005 OVC035
     FM221100 16004KT 3SM -RA BR OVC020
     FM221600 18006KT 4SM -RA BR OVC015=

USA.gov is the U.S. government's official web portal to all federal, state and local government web resources and services.